createdAt,value
2023-02-08T00:00:55.193Z,2.80
2023-02-08T00:03:22.948Z,2.90
2023-02-08T00:05:49.978Z,2.80
2023-02-08T00:08:17.456Z,2.80
2023-02-08T00:10:44.578Z,2.80
2023-02-08T00:13:11.543Z,2.80
2023-02-08T00:15:43.375Z,3.00
2023-02-08T00:18:10.617Z,2.90
2023-02-08T00:20:42.670Z,2.80
2023-02-08T00:23:09.992Z,2.90
2023-02-08T00:25:36.957Z,2.90
2023-02-08T00:28:04.897Z,2.90
2023-02-08T00:30:32.566Z,2.80
2023-02-08T00:33:01.364Z,2.80
2023-02-08T00:35:29.184Z,2.70
2023-02-08T00:37:56.814Z,2.70
2023-02-08T00:40:24.756Z,2.70
2023-02-08T00:42:51.584Z,2.80
2023-02-08T00:45:18.463Z,2.90
2023-02-08T00:47:45.330Z,2.70
2023-02-08T00:50:12.716Z,2.70
2023-02-08T00:52:39.614Z,2.50
2023-02-08T00:55:07.195Z,2.70
2023-02-08T00:57:34.703Z,2.70
2023-02-08T01:00:02.242Z,2.80
2023-02-08T01:02:29.329Z,2.70
2023-02-08T01:04:56.800Z,2.60
2023-02-08T01:07:23.826Z,2.50
2023-02-08T01:09:50.625Z,2.50
2023-02-08T01:12:17.728Z,2.60
2023-02-08T01:14:44.641Z,2.70
2023-02-08T01:17:11.616Z,2.50
2023-02-08T01:19:38.942Z,2.50
2023-02-08T01:22:06.023Z,2.50
2023-02-08T01:24:33.135Z,2.50
2023-02-08T01:27:00.520Z,2.50
2023-02-08T01:29:27.581Z,2.30
2023-02-08T01:31:54.507Z,2.40
2023-02-08T01:34:21.604Z,2.40
2023-02-08T01:36:48.691Z,2.30
2023-02-08T01:39:15.534Z,2.40
2023-02-08T01:41:44.463Z,2.40
2023-02-08T01:44:14.340Z,2.30
2023-02-08T01:46:47.289Z,2.40
2023-02-08T01:49:26.425Z,2.30
2023-02-08T01:51:59.066Z,2.20
2023-02-08T01:54:31.266Z,2.10
2023-02-08T01:57:00.597Z,2.00
2023-02-08T01:59:37.988Z,2.00
2023-02-08T02:02:07.656Z,2.00
2023-02-08T02:04:35.990Z,1.90
2023-02-08T02:07:04.445Z,1.90
2023-02-08T02:09:42.506Z,1.90
2023-02-08T02:12:10.263Z,2.10
2023-02-08T02:14:39.137Z,2.10
2023-02-08T02:17:06.922Z,2.10
2023-02-08T02:19:50.996Z,2.10
2023-02-08T02:22:56.742Z,2.10
2023-02-08T02:25:45.404Z,2.10
2023-02-08T02:28:40.029Z,2.10
2023-02-08T02:31:44.639Z,2.00
2023-02-08T02:34:26.349Z,1.90
2023-02-08T02:37:15.939Z,1.90
2023-02-08T02:39:54.423Z,1.90
2023-02-08T02:42:55.516Z,1.80
2023-02-08T02:45:25.342Z,1.70
2023-02-08T02:48:28.455Z,1.80
2023-02-08T02:51:10.129Z,1.70
2023-02-08T02:53:59.351Z,1.70
2023-02-08T02:56:39.457Z,1.60
2023-02-08T02:59:08.824Z,1.50
2023-02-08T03:01:36.367Z,1.50
2023-02-08T03:04:34.437Z,1.40
2023-02-08T03:07:19.433Z,1.50
2023-02-08T03:10:13.513Z,1.40
2023-02-08T03:13:11.236Z,1.50
2023-02-08T03:16:00.036Z,1.40
2023-02-08T03:18:39.468Z,1.40
2023-02-08T03:21:20.789Z,1.40
2023-02-08T03:23:56.211Z,1.40
2023-02-08T03:26:30.773Z,1.40
2023-02-08T03:29:09.522Z,1.50
2023-02-08T03:31:48.024Z,1.40
2023-02-08T03:34:27.591Z,1.60
2023-02-08T03:37:00.835Z,1.50
2023-02-08T03:39:33.000Z,1.60
2023-02-08T03:42:04.747Z,1.60
2023-02-08T03:44:45.266Z,1.60
2023-02-08T03:47:25.801Z,1.60
2023-02-08T03:49:55.389Z,1.70
2023-02-08T03:52:23.425Z,1.80
2023-02-08T03:55:12.792Z,1.70
2023-02-08T03:58:08.984Z,1.60
2023-02-08T04:00:41.156Z,1.50
2023-02-08T04:03:22.351Z,1.50
2023-02-08T04:05:50.686Z,1.50
2023-02-08T04:08:20.042Z,1.30
2023-02-08T04:10:47.614Z,1.20
2023-02-08T04:13:14.428Z,1.20
2023-02-08T04:15:42.809Z,1.20
2023-02-08T04:18:13.068Z,1.10
2023-02-08T04:20:40.388Z,1.10
2023-02-08T04:23:07.340Z,1.30
2023-02-08T04:25:34.113Z,1.40
2023-02-08T04:28:01.053Z,1.30
2023-02-08T04:30:27.963Z,1.20
2023-02-08T04:32:54.912Z,1.30
2023-02-08T04:35:21.928Z,1.10
2023-02-08T04:37:48.817Z,1.20
2023-02-08T04:40:15.718Z,1.10
2023-02-08T04:42:42.546Z,1.20
2023-02-08T04:45:10.142Z,1.10
2023-02-08T04:47:37.031Z,1.20
2023-02-08T04:50:04.372Z,1.20
2023-02-08T04:52:31.145Z,1.20
2023-02-08T04:55:00.206Z,1.20
2023-02-08T04:57:27.259Z,1.20
2023-02-08T04:59:54.183Z,1.00
2023-02-08T05:02:21.391Z,0.90
2023-02-08T05:04:48.409Z,0.90
2023-02-08T05:07:15.518Z,0.80
2023-02-08T05:09:42.468Z,0.90
2023-02-08T05:12:09.475Z,0.90
2023-02-08T05:14:36.638Z,0.80
2023-02-08T05:17:03.544Z,0.90
2023-02-08T05:19:30.636Z,0.90
2023-02-08T05:21:57.898Z,0.90
2023-02-08T05:24:24.900Z,0.90
2023-02-08T05:26:52.152Z,1.00
2023-02-08T05:29:19.015Z,0.90
2023-02-08T05:31:46.134Z,1.00
2023-02-08T05:34:13.274Z,1.00
2023-02-08T05:36:40.186Z,1.20
2023-02-08T05:39:07.009Z,1.10
2023-02-08T05:41:33.779Z,1.10
2023-02-08T05:44:00.571Z,1.10
2023-02-08T05:46:27.451Z,1.10
2023-02-08T05:48:55.185Z,1.10
2023-02-08T05:51:22.286Z,1.00
2023-02-08T05:53:49.187Z,1.00
2023-02-08T05:56:16.111Z,1.00
2023-02-08T05:58:42.914Z,1.00
2023-02-08T06:01:12.172Z,1.00
2023-02-08T06:03:40.017Z,1.00
2023-02-08T06:06:07.912Z,1.00
2023-02-08T06:08:34.755Z,1.10
2023-02-08T06:11:03.116Z,1.10
2023-02-08T06:13:29.913Z,1.10
2023-02-08T06:15:56.906Z,1.10
2023-02-08T06:18:23.878Z,1.10
2023-02-08T06:20:54.384Z,1.20
2023-02-08T06:23:22.318Z,1.20
2023-02-08T06:25:49.663Z,1.20
2023-02-08T06:28:17.223Z,1.20
2023-02-08T06:30:44.294Z,1.10
2023-02-08T06:33:12.003Z,1.20
2023-02-08T06:35:39.925Z,1.00
2023-02-08T06:38:06.740Z,1.00
2023-02-08T06:40:33.870Z,1.10
2023-02-08T06:43:00.730Z,1.00
2023-02-08T06:45:27.586Z,1.00
2023-02-08T06:47:54.629Z,0.90
2023-02-08T06:50:24.005Z,0.80
2023-02-08T06:52:51.120Z,0.80
2023-02-08T06:55:18.057Z,0.80
2023-02-08T06:57:44.895Z,0.90
2023-02-08T07:00:12.373Z,0.90
2023-02-08T07:02:39.709Z,1.00
2023-02-08T07:05:07.610Z,1.10
2023-02-08T07:07:34.733Z,1.00
2023-02-08T07:10:01.629Z,0.90
2023-02-08T07:12:28.623Z,0.90
2023-02-08T07:14:55.759Z,0.90
2023-02-08T07:17:22.604Z,0.80
2023-02-08T07:19:49.523Z,0.90
2023-02-08T07:22:18.443Z,1.00
2023-02-08T07:24:45.727Z,1.10
2023-02-08T07:27:13.724Z,0.90
2023-02-08T07:29:40.914Z,1.00
2023-02-08T07:32:08.553Z,0.90
2023-02-08T07:34:37.263Z,1.10
2023-02-08T07:37:04.784Z,1.10
2023-02-08T07:39:31.900Z,1.00
2023-02-08T07:41:59.623Z,0.90
2023-02-08T07:44:27.021Z,1.00
2023-02-08T07:46:53.906Z,1.00
2023-02-08T07:49:20.954Z,1.20
2023-02-08T07:51:48.092Z,1.00
2023-02-08T07:54:15.227Z,1.00
2023-02-08T07:56:42.062Z,1.10
2023-02-08T07:59:09.149Z,1.10
2023-02-08T08:01:36.229Z,1.30
2023-02-08T08:04:03.286Z,1.30
2023-02-08T08:06:30.174Z,1.40
2023-02-08T08:08:57.079Z,1.70
2023-02-08T08:11:24.064Z,1.70
2023-02-08T08:13:51.573Z,1.90
2023-02-08T08:16:19.180Z,1.90
2023-02-08T08:18:46.513Z,2.10
2023-02-08T08:21:13.626Z,2.00
2023-02-08T08:23:40.454Z,2.00
2023-02-08T08:26:16.012Z,2.00
2023-02-08T08:28:43.796Z,2.20
2023-02-08T08:31:19.746Z,2.30
2023-02-08T08:33:46.935Z,2.50
2023-02-08T08:36:14.163Z,2.60
2023-02-08T08:38:41.943Z,2.70
2023-02-08T08:41:18.151Z,2.70
2023-02-08T08:43:45.630Z,2.70
2023-02-08T08:46:13.131Z,2.70
2023-02-08T08:48:40.274Z,2.90
2023-02-08T08:51:07.842Z,3.00
2023-02-08T08:53:37.020Z,3.00
2023-02-08T08:56:04.914Z,3.10
2023-02-08T08:58:32.237Z,3.40
2023-02-08T09:01:00.247Z,3.30
2023-02-08T09:03:29.057Z,3.40
2023-02-08T09:05:58.909Z,3.50
2023-02-08T09:08:25.673Z,3.80
2023-02-08T09:10:52.521Z,3.90
2023-02-08T09:13:20.086Z,4.00
2023-02-08T09:15:47.569Z,4.20
2023-02-08T09:18:14.845Z,4.20
2023-02-08T09:20:42.181Z,4.50
2023-02-08T09:23:09.125Z,4.40
2023-02-08T09:25:37.559Z,4.60
2023-02-08T09:28:05.171Z,4.70
2023-02-08T09:30:32.560Z,5.00
2023-02-08T09:32:59.540Z,5.00
2023-02-08T09:35:26.575Z,5.10
2023-02-08T09:37:57.589Z,5.30
2023-02-08T09:40:28.617Z,5.30
2023-02-08T09:43:09.508Z,5.60
2023-02-08T09:46:00.383Z,5.80
2023-02-08T09:48:46.649Z,5.90
2023-02-08T09:51:34.245Z,5.90
2023-02-08T09:54:18.568Z,6.40
2023-02-08T09:56:47.678Z,6.70
2023-02-08T09:59:30.133Z,6.80
2023-02-08T10:02:02.502Z,6.60
2023-02-08T10:04:44.638Z,6.60
2023-02-08T10:07:11.702Z,6.80
2023-02-08T10:09:38.542Z,6.90
2023-02-08T10:12:37.719Z,7.10
2023-02-08T10:15:38.633Z,7.20
2023-02-08T10:18:36.572Z,7.40
2023-02-08T10:21:14.048Z,7.60
2023-02-08T10:23:53.140Z,8.00
2023-02-08T10:26:46.053Z,8.40
2023-02-08T10:29:34.064Z,8.50
2023-02-08T10:32:22.602Z,8.70
2023-02-08T10:35:12.814Z,8.70
2023-02-08T10:37:43.108Z,8.80
2023-02-08T10:40:21.004Z,9.00
2023-02-08T10:43:17.652Z,9.00
2023-02-08T10:45:53.681Z,9.20
2023-02-08T10:48:37.974Z,9.50
2023-02-08T10:51:05.124Z,9.60
2023-02-08T10:53:32.187Z,10.00
2023-02-08T10:55:59.268Z,9.90
2023-02-08T10:58:26.892Z,10.10
2023-02-08T11:00:55.190Z,10.50
2023-02-08T11:03:25.502Z,10.80
2023-02-08T11:05:53.894Z,10.30
2023-02-08T11:08:25.690Z,10.50
2023-02-08T11:11:00.256Z,10.80
2023-02-08T11:13:39.603Z,11.10
2023-02-08T11:16:10.862Z,11.20
2023-02-08T11:18:48.667Z,10.50
2023-02-08T11:21:33.785Z,10.50
2023-02-08T11:24:41.418Z,10.30
2023-02-08T11:27:28.808Z,10.00
2023-02-08T11:30:15.955Z,10.10
2023-02-08T11:32:44.848Z,10.80
2023-02-08T11:35:29.521Z,10.30
2023-02-08T11:37:58.865Z,10.20
2023-02-08T11:40:31.722Z,10.40
2023-02-08T11:42:59.192Z,10.30
2023-02-08T11:45:31.003Z,10.30
2023-02-08T11:47:58.562Z,10.30
2023-02-08T11:50:31.928Z,10.30
2023-02-08T11:53:02.605Z,10.70
2023-02-08T11:55:32.472Z,11.10
2023-02-08T11:58:19.662Z,11.80
2023-02-08T12:01:03.586Z,12.10
2023-02-08T12:03:41.881Z,12.60
2023-02-08T12:06:11.562Z,12.50
2023-02-08T12:08:50.000Z,12.70
2023-02-08T12:11:19.734Z,13.10
2023-02-08T12:14:24.112Z,12.80
2023-02-08T12:16:53.899Z,12.50
2023-02-08T12:19:39.756Z,13.10
2023-02-08T12:22:12.924Z,13.50
2023-02-08T12:25:09.489Z,14.10
2023-02-08T12:27:45.752Z,13.90
2023-02-08T12:30:15.353Z,13.80
2023-02-08T12:32:52.112Z,13.80
2023-02-08T12:36:02.814Z,13.90
2023-02-08T12:39:21.919Z,14.00
2023-02-08T12:42:02.222Z,13.30
2023-02-08T12:44:48.669Z,14.00
2023-02-08T12:47:18.548Z,14.80
2023-02-08T12:49:57.465Z,14.90
2023-02-08T12:52:42.225Z,14.70
2023-02-08T12:55:38.941Z,14.90
2023-02-08T12:58:17.785Z,14.60
2023-02-08T13:00:46.360Z,14.30
2023-02-08T13:03:32.147Z,14.60
2023-02-08T13:06:02.576Z,15.10
2023-02-08T13:08:42.429Z,14.70
2023-02-08T13:11:36.392Z,14.50
2023-02-08T13:14:11.299Z,14.40
2023-02-08T13:16:52.486Z,14.60
2023-02-08T13:19:31.263Z,14.70
2023-02-08T13:21:59.833Z,14.80
2023-02-08T13:24:39.852Z,15.10
2023-02-08T13:27:08.624Z,14.80
2023-02-08T13:29:37.454Z,14.60
2023-02-08T13:32:11.158Z,15.00
2023-02-08T13:35:04.873Z,15.20
2023-02-08T13:37:34.764Z,15.70
2023-02-08T13:40:01.567Z,15.70
2023-02-08T13:42:31.545Z,14.70
2023-02-08T13:44:59.288Z,15.40
2023-02-08T13:47:31.615Z,15.30
2023-02-08T13:50:29.028Z,15.60
2023-02-08T13:52:56.201Z,15.50
2023-02-08T13:55:30.640Z,15.50
2023-02-08T13:58:02.829Z,15.60
2023-02-08T14:00:31.576Z,15.10
2023-02-08T14:03:09.717Z,14.80
2023-02-08T14:05:58.733Z,14.70
2023-02-08T14:08:44.204Z,14.50
2023-02-08T14:11:27.853Z,14.70
2023-02-08T14:14:23.319Z,15.20
2023-02-08T14:17:05.569Z,15.10
2023-02-08T14:19:40.899Z,15.30
2023-02-08T14:22:13.895Z,15.50
2023-02-08T14:24:48.204Z,15.30
2023-02-08T14:27:41.216Z,15.50
2023-02-08T14:30:11.111Z,16.00
2023-02-08T14:32:41.509Z,16.10
2023-02-08T14:35:09.616Z,15.90
2023-02-08T14:37:37.512Z,15.40
2023-02-08T14:40:25.629Z,15.20
2023-02-08T14:43:24.353Z,15.40
2023-02-08T14:45:53.721Z,15.20
2023-02-08T14:48:44.641Z,14.90
2023-02-08T14:51:11.717Z,15.10
2023-02-08T14:53:57.536Z,15.00
2023-02-08T14:56:26.698Z,15.50
2023-02-08T14:59:08.030Z,15.70
2023-02-08T15:01:45.551Z,15.80
2023-02-08T15:04:18.355Z,15.60
2023-02-08T15:07:21.272Z,15.50
2023-02-08T15:09:48.241Z,15.30
2023-02-08T15:12:37.343Z,15.30
2023-02-08T15:15:05.731Z,14.90
2023-02-08T15:17:47.710Z,14.80
2023-02-08T15:20:44.892Z,14.60
2023-02-08T15:23:22.691Z,14.20
2023-02-08T15:26:01.925Z,14.00
2023-02-08T15:28:31.487Z,13.70
2023-02-08T15:31:09.244Z,13.00
2023-02-08T15:33:40.072Z,12.40
2023-02-08T15:36:15.224Z,12.40
2023-02-08T15:38:45.040Z,12.20
2023-02-08T15:41:15.595Z,12.10
2023-02-08T15:43:43.634Z,12.00
2023-02-08T15:46:25.863Z,11.50
2023-02-08T15:48:53.907Z,11.40
2023-02-08T15:51:23.207Z,11.30
2023-02-08T15:53:54.013Z,11.20
2023-02-08T15:56:37.561Z,11.10
2023-02-08T15:59:07.965Z,11.00
2023-02-08T16:01:35.361Z,11.00
2023-02-08T16:04:12.815Z,10.90
2023-02-08T16:06:46.503Z,10.70
2023-02-08T16:09:18.874Z,10.50
2023-02-08T16:11:49.968Z,10.40
2023-02-08T16:14:19.353Z,10.30
2023-02-08T16:16:50.120Z,10.40
2023-02-08T16:19:26.248Z,10.40
2023-02-08T16:21:56.116Z,10.20
2023-02-08T16:24:27.900Z,9.90
2023-02-08T16:27:06.860Z,10.10
2023-02-08T16:29:39.713Z,9.90
2023-02-08T16:32:22.980Z,9.90
2023-02-08T16:34:50.073Z,9.90
2023-02-08T16:37:26.383Z,9.70
2023-02-08T16:40:26.882Z,9.60
2023-02-08T16:43:13.895Z,9.70
2023-02-08T16:45:40.857Z,9.60
2023-02-08T16:48:33.244Z,9.40
2023-02-08T16:51:00.980Z,9.20
2023-02-08T16:53:40.377Z,9.30
2023-02-08T16:56:10.199Z,9.10
2023-02-08T16:58:37.326Z,8.90
2023-02-08T17:01:04.738Z,8.90
2023-02-08T17:03:32.794Z,8.70
2023-02-08T17:06:01.057Z,8.50
2023-02-08T17:08:28.863Z,8.50
2023-02-08T17:10:59.058Z,8.50
2023-02-08T17:13:29.451Z,8.20
2023-02-08T17:16:00.308Z,8.10
2023-02-08T17:18:27.285Z,8.10
2023-02-08T17:20:59.482Z,7.90
2023-02-08T17:23:26.964Z,7.80
2023-02-08T17:25:54.155Z,7.70
2023-02-08T17:28:21.391Z,7.70
2023-02-08T17:30:49.658Z,7.70
2023-02-08T17:33:19.727Z,7.50
2023-02-08T17:35:49.627Z,7.30
2023-02-08T17:38:17.685Z,7.20
2023-02-08T17:40:45.099Z,7.00
2023-02-08T17:43:13.228Z,7.10
2023-02-08T17:45:42.048Z,7.00
2023-02-08T17:48:09.475Z,7.00
2023-02-08T17:50:36.968Z,7.00
2023-02-08T17:53:04.131Z,7.00
2023-02-08T17:55:31.618Z,6.80
2023-02-08T17:57:58.879Z,6.70
2023-02-08T18:00:26.061Z,6.70
2023-02-08T18:02:56.620Z,6.70
2023-02-08T18:05:26.562Z,6.60
2023-02-08T18:07:55.663Z,6.60
2023-02-08T18:10:24.612Z,6.50
2023-02-08T18:12:54.284Z,6.30
2023-02-08T18:15:22.564Z,6.20
2023-02-08T18:17:50.690Z,6.30
2023-02-08T18:20:20.800Z,6.30
2023-02-08T18:22:47.850Z,6.30
2023-02-08T18:25:16.160Z,6.30
2023-02-08T18:27:43.426Z,6.40
2023-02-08T18:30:11.812Z,6.30
2023-02-08T18:32:39.862Z,6.50
2023-02-08T18:35:08.051Z,6.40
2023-02-08T18:37:41.452Z,6.40
2023-02-08T18:40:10.354Z,6.40
2023-02-08T18:42:37.261Z,6.40
2023-02-08T18:45:05.629Z,6.20
2023-02-08T18:47:34.501Z,6.20
2023-02-08T18:50:01.685Z,6.10
2023-02-08T18:52:31.187Z,5.90
2023-02-08T18:54:58.909Z,6.00
2023-02-08T18:57:25.772Z,6.00
2023-02-08T18:59:54.305Z,5.80
2023-02-08T19:02:23.377Z,5.80
2023-02-08T19:04:51.100Z,5.70
2023-02-08T19:07:18.021Z,5.70
2023-02-08T19:09:44.978Z,5.70
2023-02-08T19:12:15.645Z,5.60
2023-02-08T19:14:43.438Z,5.50
2023-02-08T19:17:11.477Z,5.40
2023-02-08T19:19:39.823Z,5.60
2023-02-08T19:22:06.853Z,5.50
2023-02-08T19:24:33.911Z,5.50
2023-02-08T19:27:01.018Z,5.50
2023-02-08T19:29:28.026Z,5.40
2023-02-08T19:31:57.804Z,5.30
2023-02-08T19:34:25.486Z,5.20
2023-02-08T19:36:54.891Z,5.20
2023-02-08T19:39:25.151Z,5.30
2023-02-08T19:41:55.273Z,5.40
2023-02-08T19:44:22.926Z,5.30
2023-02-08T19:46:52.380Z,5.20
2023-02-08T19:49:19.868Z,5.30
2023-02-08T19:51:47.000Z,5.10
2023-02-08T19:54:17.012Z,5.10
2023-02-08T19:56:44.671Z,5.10
2023-02-08T19:59:23.993Z,5.00
2023-02-08T20:01:51.251Z,5.10
2023-02-08T20:04:19.396Z,5.10
2023-02-08T20:06:46.539Z,4.80
2023-02-08T20:09:15.390Z,4.70
2023-02-08T20:11:56.419Z,4.60
2023-02-08T20:14:25.201Z,4.60
2023-02-08T20:16:52.192Z,4.60
2023-02-08T20:19:19.196Z,4.60
2023-02-08T20:21:46.207Z,4.60
2023-02-08T20:24:13.942Z,4.60
2023-02-08T20:26:43.188Z,4.50
2023-02-08T20:29:10.799Z,4.40
2023-02-08T20:31:41.009Z,4.40
2023-02-08T20:34:11.426Z,4.40
2023-02-08T20:36:40.754Z,4.60
2023-02-08T20:39:11.290Z,4.50
2023-02-08T20:41:38.456Z,4.50
2023-02-08T20:44:05.690Z,4.40
2023-02-08T20:46:34.789Z,4.40
2023-02-08T20:49:04.491Z,4.50
2023-02-08T20:51:32.070Z,4.40
2023-02-08T20:53:59.955Z,4.40
2023-02-08T20:56:29.386Z,4.30
2023-02-08T20:58:56.223Z,4.30
2023-02-08T21:01:28.238Z,4.10
2023-02-08T21:03:57.779Z,4.10
2023-02-08T21:06:29.547Z,4.20
2023-02-08T21:09:02.116Z,4.20
2023-02-08T21:11:31.127Z,4.10
2023-02-08T21:13:58.980Z,4.00
2023-02-08T21:16:26.645Z,3.90
2023-02-08T21:18:55.077Z,3.90
2023-02-08T21:21:22.046Z,4.00
2023-02-08T21:23:49.118Z,3.90
2023-02-08T21:26:18.655Z,3.90
2023-02-08T21:28:46.568Z,3.90
2023-02-08T21:31:20.095Z,4.00
2023-02-08T21:33:47.370Z,4.10
2023-02-08T21:36:17.238Z,4.00
2023-02-08T21:38:45.377Z,4.00
2023-02-08T21:41:20.240Z,3.80
2023-02-08T21:43:48.209Z,3.80
2023-02-08T21:46:15.700Z,3.80
2023-02-08T21:49:01.552Z,3.80
2023-02-08T21:51:47.407Z,3.80
2023-02-08T21:54:36.009Z,3.80
2023-02-08T21:57:04.760Z,3.70
2023-02-08T21:59:37.163Z,3.60
2023-02-08T22:02:05.995Z,3.70
2023-02-08T22:04:34.862Z,3.60
2023-02-08T22:07:04.535Z,3.80
2023-02-08T22:09:31.669Z,3.80
2023-02-08T22:11:58.884Z,3.80
2023-02-08T22:14:26.111Z,3.70
2023-02-08T22:16:54.922Z,3.60
2023-02-08T22:19:21.897Z,3.50
2023-02-08T22:21:48.837Z,3.50
2023-02-08T22:24:15.704Z,3.30
2023-02-08T22:26:43.906Z,3.40
2023-02-08T22:29:10.884Z,3.30
2023-02-08T22:31:38.213Z,3.20
2023-02-08T22:34:05.706Z,3.20
2023-02-08T22:36:32.726Z,3.20
2023-02-08T22:38:59.566Z,3.40
2023-02-08T22:41:26.637Z,3.40
2023-02-08T22:43:54.452Z,3.40
2023-02-08T22:46:21.423Z,3.20
2023-02-08T22:48:48.447Z,3.20
2023-02-08T22:51:17.824Z,3.20
2023-02-08T22:53:45.337Z,3.20
2023-02-08T22:56:19.313Z,3.30
2023-02-08T22:58:46.277Z,3.20
2023-02-08T23:01:15.122Z,3.10
2023-02-08T23:03:43.340Z,3.20
2023-02-08T23:06:15.064Z,3.10
2023-02-08T23:08:41.988Z,3.10
2023-02-08T23:11:12.184Z,2.90
2023-02-08T23:13:39.195Z,2.80
2023-02-08T23:16:06.677Z,2.90
2023-02-08T23:18:35.752Z,2.90
2023-02-08T23:21:08.533Z,3.00
2023-02-08T23:23:36.218Z,3.00
2023-02-08T23:26:11.732Z,2.90
2023-02-08T23:28:38.763Z,2.80
2023-02-08T23:31:07.467Z,2.70
2023-02-08T23:33:35.520Z,2.70
2023-02-08T23:36:11.332Z,2.70
2023-02-08T23:38:39.177Z,2.70
2023-02-08T23:41:08.690Z,2.80
2023-02-08T23:43:36.007Z,2.80
2023-02-08T23:46:12.082Z,2.70
2023-02-08T23:48:39.466Z,2.70
2023-02-08T23:51:08.004Z,2.60
2023-02-08T23:53:36.282Z,2.70
2023-02-08T23:56:10.996Z,2.60
2023-02-08T23:58:37.915Z,2.70
